Lady Washington — WAA2820 — position and weather

sailwx.info

Track history (hours):
 
Tides and Currents Weather Stations Pressure Air Temp Water Temp Dewpoint Dewpoint Depression Visibility Wind Speed Wind Dir Waves Ship Positions

Lady Washington (United States)

Ship's website: http://www.historicalseaport.org/LadyWashington.htm

Owner: GRAYS HARBOR HISTORICAL SEAPORT AUTHORIT, ABERDEEN, WA. More information available from US FCC via Universal Licensing System and Coast Guard Vessel Documentation Center.

Last reported at 2017-Jul-26 18:43 UTC. Time now 2017-Jul-27 00:35 UTC.
Position N 47°44' W 122°27'.

Length 37 m.

Type: Sailing vessel. MMSI: 366945360.

Date/timePositionNaut miles runAvg speedWind from/ knotsBaromVisibWave heightAir tempDewpointWater temp
2017-Jul-26 18:43N 47°44' W 122°27'1 6.1
2017-Jul-26 18:30N 47°46' W 122°27'3 6.4
2017-Jul-26 18:00N 47°49' W 122°28'3 6.7
2017-Jul-26 17:30N 47°52' W 122°29'3 5.9
2017-Jul-26 17:00N 47°55' W 122°30'  
2017-Jul-18 01:05N 48°35' W 123°13'1 6.1
2017-Jul-18 00:55N 48°34' W 123°12'3 6.2
2017-Jul-18 00:30N 48°31' W 123°11'3 5.6
2017-Jul-17 23:58N 48°28' W 123°10'2 5.2
2017-Jul-17 23:30N 48°26' W 123°10'3 5.2
2017-Jul-17 23:00N 48°24' W 123°13'3 6.5
2017-Jul-17 22:30N 48°22' W 123°17'4 7.1
2017-Jul-17 22:00N 48°22' W 123°22'44 5.8
2017-Jul-17 14:24N 48°22' W 124°28'3 6.8
2017-Jul-17 14:00N 48°23' W 124°32'3 6.3
2017-Jul-17 13:30N 48°25' W 124°36'3 6.0
2017-Jul-17 13:00N 48°26' W 124°40'  
Track history (hours):
 
Tides and Currents Weather Stations Pressure Air Temp Water Temp Dewpoint Dewpoint Depression Visibility Wind Speed Wind Dir Waves Ship Positions

Lady Washington (United States)

Ship's website: http://www.historicalseaport.org/LadyWashington.htm

Owner: GRAYS HARBOR HISTORICAL SEAPORT AUTHORIT, ABERDEEN, WA. More information available from US FCC via Universal Licensing System and Coast Guard Vessel Documentation Center.

Last reported at 2017-Jul-26 18:43 UTC. Time now 2017-Jul-27 00:35 UTC.
Position N 47°44' W 122°27'.

Length 37 m.

Type: Sailing vessel. MMSI: 366945360.

Date/timePositionNaut miles runAvg speedWind from/ knotsBaromVisibWave heightAir tempDewpointWater temp
2017-Jul-26 18:43N 47°44' W 122°27'1 6.1
2017-Jul-26 18:30N 47°46' W 122°27'3 6.4
2017-Jul-26 18:00N 47°49' W 122°28'3 6.7
2017-Jul-26 17:30N 47°52' W 122°29'3 5.9
2017-Jul-26 17:00N 47°55' W 122°30'  
2017-Jul-18 01:05N 48°35' W 123°13'1 6.1
2017-Jul-18 00:55N 48°34' W 123°12'3 6.2
2017-Jul-18 00:30N 48°31' W 123°11'3 5.6
2017-Jul-17 23:58N 48°28' W 123°10'2 5.2
2017-Jul-17 23:30N 48°26' W 123°10'3 5.2
2017-Jul-17 23:00N 48°24' W 123°13'3 6.5
2017-Jul-17 22:30N 48°22' W 123°17'4 7.1
2017-Jul-17 22:00N 48°22' W 123°22'44 5.8
2017-Jul-17 14:24N 48°22' W 124°28'3 6.8
2017-Jul-17 14:00N 48°23' W 124°32'3 6.3
2017-Jul-17 13:30N 48°25' W 124°36'3 6.0
2017-Jul-17 13:00N 48°26' W 124°40'  

Dump ship's entire track history